Saturday, November 18, 2017, 1:20 AM EST
Back to Local

KIAG, Niagara Falls International Airport

Location: Niagara Falls, NY, United States Lat: 43.117
Local Time: 1:20 AM EST ( 6:20 GMT) Lon: -78.933
Time Zone: US/Eastern Elev: 583 ft

Show me the last for .
Show Decoded

2017-11-18 00:53 METAR KIAG 180553Z AUTO 10006KT 10SM CLR 01/M04 A2981 RMK AO2 SLP108 T00061039
                 10022 20006 58043 $ =
2017-11-17 23:53 METAR KIAG 180453Z AUTO 10004KT 10SM CLR 01/M04 A2987 RMK AO2 SLP128 T00061039
                 400280000 =
2017-11-17 22:53 METAR KIAG 180353Z 12006KT 10SM FEW120 01/M04 A2990 RMK AO2 SLP139 T00111039 =
2017-11-17 21:53 METAR KIAG 180253Z 13006KT 10SM CLR 02/M03 A2994 RMK AO2 SLP153 T00171033 58032
                 =
2017-11-17 20:53 METAR KIAG 180153Z 13006KT 10SM SCT110 01/M04 A2997 RMK AO2 SLP164 T00111039 =
2017-11-17 19:53 METAR KIAG 180053Z 10007KT 10SM CLR 01/M04 A3001 RMK AO2 SLP175 T00111039 =
2017-11-17 18:53 METAR KIAG 172353Z 10006KT 10SM FEW120 02/M03 A3004 RMK AO2 SLP185 T00221028
                 10028 20017 58029 =
2017-11-17 17:53 METAR KIAG 172253Z 10003KT 10SM CLR 02/M03 A3007 RMK AO2 SLP198 T00221033 =
2017-11-17 16:53 METAR KIAG 172153Z 00000KT 10SM BKN120 03/M03 A3011 RMK AO2 SLP208 T00281033 =
2017-11-17 15:53 METAR KIAG 172053Z 20008KT 10SM CLR 02/M04 A3012 RMK AO2 SLP214 T00221039 58027
                 =
2017-11-17 14:53 METAR KIAG 171953Z 22005KT 10SM CLR 03/M04 A3016 RMK AO2 SLP226 T00281044 =
2017-11-17 13:53 METAR KIAG 171853Z 23009KT 10SM CLR 02/M05 A3019 RMK AO2 SLP237 T00221050 =
2017-11-17 12:53 METAR KIAG 171753Z 21007KT 10SM FEW024 02/M06 A3020 RMK AO2 SLP241 T00171056
                 10022 20000 56019 =
2017-11-17 12:48 METAR KIAG 171748Z 21006KT 10SM SCT023 02/M06 A3021 RMK AO2 =
2017-11-17 11:53 METAR KIAG 171653Z 28003KT 10SM OVC023 01/M06 A3023 RMK AO2 SLP250 T00061056 =
2017-11-17 10:53 METAR KIAG 171553Z 22005KT 10SM BKN022 01/M06 A3026 RMK AO2 SLP261 T00061056 =
2017-11-17 09:53 METAR KIAG 171453Z 29003KT 10SM BKN021 00/M06 A3027 RMK AO2 SLP265 T00001061
                 51009 =
2017-11-17 08:53 METAR KIAG 171353Z 36006KT 10SM OVC021 00/M06 A3027 RMK AO2 SLP265 T00001061 =
2017-11-17 07:53 METAR KIAG 171253Z 02006KT 10SM OVC023 00/M06 A3027 RMK AO2 SLP262 T00001056 =
2017-11-17 06:53 METAR KIAG 171153Z 34008KT 10SM OVC025 01/M06 A3025 RMK AO2 SLP255 T00061061
                 10022 20000 53013 =
2017-11-17 05:53 METAR KIAG 171053Z AUTO 35007KT 10SM OVC025 01/M06 A3022 RMK AO2 SLP247
                 T00061061 =
2017-11-17 04:53 METAR KIAG 170953Z AUTO 34009KT 10SM OVC024 01/M05 A3022 RMK AO2 SLP244
                 T00111050 =
2017-11-17 03:53 METAR KIAG 170853Z AUTO 33012KT 10SM OVC024 02/M04 A3021 RMK AO2 SLP240
                 T00171044 51021 =
2017-11-17 02:53 METAR KIAG 170753Z AUTO 32010KT 10SM OVC025 02/M04 A3019 RMK AO2 SLP236
                 T00171044 =
2017-11-17 01:53 METAR KIAG 170653Z AUTO 33014KT 10SM OVC024 02/M04 A3017 RMK AO2 SLP227
                 T00171039 =

Support USWX by starting your Amazon purchase here.